createdAt,value
2023-09-26T00:01:33.982Z,102400.91
2023-09-26T00:03:35.844Z,102403.59
2023-09-26T00:05:37.802Z,102397.44
2023-09-26T00:07:40.247Z,102394.81
2023-09-26T00:09:42.024Z,102398.38
2023-09-26T00:11:43.763Z,102403.69
2023-09-26T00:13:45.869Z,102400.16
2023-09-26T00:15:47.614Z,102398.38
2023-09-26T00:17:49.430Z,102388.72
2023-09-26T00:19:51.221Z,102392.22
2023-09-26T00:21:53.038Z,102390.47
2023-09-26T00:23:54.793Z,102391.34
2023-09-26T00:25:56.537Z,102398.41
2023-09-26T00:27:58.837Z,102396.66
2023-09-26T00:30:00.770Z,102397.56
2023-09-26T00:32:02.924Z,102395.78
2023-09-26T00:34:05.707Z,102401.09
2023-09-26T00:36:11.970Z,102396.69
2023-09-26T00:38:13.953Z,102397.59
2023-09-26T00:40:20.042Z,102396.72
2023-09-26T00:42:21.953Z,102405.50
2023-09-26T00:44:23.682Z,102400.25
2023-09-26T00:46:25.745Z,102402.03
2023-09-26T00:48:27.966Z,102402.97
2023-09-26T00:50:29.737Z,102402.09
2023-09-26T00:52:32.023Z,102401.22
2023-09-26T00:54:34.253Z,102403.88
2023-09-26T00:56:36.560Z,102407.44
2023-09-26T00:58:41.000Z,102403.91
2023-09-26T01:00:43.288Z,102404.81
2023-09-26T01:02:45.290Z,102398.66
2023-09-26T01:04:47.344Z,102403.06
2023-09-26T01:06:49.505Z,102401.31
2023-09-26T01:08:51.309Z,102395.16
2023-09-26T01:10:53.162Z,102397.81
2023-09-26T01:12:54.955Z,102404.88
2023-09-26T01:14:57.062Z,102399.59
2023-09-26T01:16:58.874Z,102393.47
2023-09-26T01:19:00.937Z,102402.28
2023-09-26T01:21:02.829Z,102393.47
2023-09-26T01:23:07.595Z,102389.97
2023-09-26T01:25:09.671Z,102388.19
2023-09-26T01:27:11.912Z,102391.72
2023-09-26T01:29:13.796Z,102382.91
2023-09-26T01:31:16.220Z,102389.97
2023-09-26T01:33:18.881Z,102387.31
2023-09-26T01:35:20.594Z,102385.56
2023-09-26T01:37:22.491Z,102383.81
2023-09-26T01:39:24.300Z,102381.19
2023-09-26T01:41:26.854Z,102384.72
2023-09-26T01:43:28.622Z,102383.84
2023-09-26T01:45:30.375Z,102376.81
2023-09-26T01:47:56.107Z,102376.81
2023-09-26T01:49:57.882Z,102374.22
2023-09-26T01:51:59.625Z,102375.97
2023-09-26T01:54:01.442Z,102381.25
2023-09-26T01:56:03.459Z,102368.06
2023-09-26T01:58:05.333Z,102369.81
2023-09-26T02:00:16.844Z,102374.22
2023-09-26T02:02:18.596Z,102378.63
2023-09-26T02:04:20.411Z,102373.38
2023-09-26T02:06:23.029Z,102369.84
2023-09-26T02:08:24.788Z,102374.28
2023-09-26T02:10:26.646Z,102368.09
2023-09-26T02:12:28.511Z,102364.59
2023-09-26T02:14:30.383Z,102364.59
2023-09-26T02:16:32.205Z,102375.19
2023-09-26T02:18:33.964Z,102372.53
2023-09-26T02:20:35.715Z,102372.53
2023-09-26T02:22:37.599Z,102373.44
2023-09-26T02:24:39.311Z,102370.78
2023-09-26T02:26:41.267Z,102362.88
2023-09-26T02:28:43.021Z,102368.19
2023-09-26T02:30:44.764Z,102361.09
2023-09-26T02:32:46.981Z,102358.47
2023-09-26T02:34:48.766Z,102359.34
2023-09-26T02:36:51.239Z,102356.72
2023-09-26T02:38:53.081Z,102366.41
2023-09-26T02:40:54.792Z,102359.38
2023-09-26T02:42:57.060Z,102369.06
2023-09-26T02:44:58.786Z,102363.78
2023-09-26T02:47:00.588Z,102364.66
2023-09-26T02:49:02.369Z,102361.16
2023-09-26T02:51:05.352Z,102361.16
2023-09-26T02:53:07.266Z,102356.75
2023-09-26T02:55:09.455Z,102358.50
2023-09-26T02:57:11.211Z,102360.28
2023-09-26T02:59:12.949Z,102354.09
2023-09-26T03:01:18.928Z,102351.47
2023-09-26T03:03:20.720Z,102354.09
2023-09-26T03:05:22.479Z,102350.59
2023-09-26T03:07:24.395Z,102352.34
2023-09-26T03:09:26.208Z,102351.47
2023-09-26T03:11:28.024Z,102346.19
2023-09-26T03:13:34.167Z,102330.31
2023-09-26T03:15:36.220Z,102334.75
2023-09-26T03:17:38.178Z,102341.78
2023-09-26T03:19:40.042Z,102333.88
2023-09-26T03:21:41.834Z,102338.28
2023-09-26T03:23:43.735Z,102331.25
2023-09-26T03:25:45.519Z,102330.34
2023-09-26T03:27:48.387Z,102332.13
2023-09-26T03:29:53.229Z,102325.97
2023-09-26T03:31:55.050Z,102332.16
2023-09-26T03:33:56.805Z,102331.28
2023-09-26T03:35:58.586Z,102323.38
2023-09-26T03:38:00.328Z,102330.44
2023-09-26T03:40:02.615Z,102322.50
2023-09-26T03:42:04.435Z,102315.47
2023-09-26T03:44:06.232Z,102322.50
2023-09-26T03:46:09.361Z,102322.50
2023-09-26T03:48:11.294Z,102326.03
2023-09-26T03:50:13.178Z,102324.28
2023-09-26T03:52:14.935Z,102315.47
2023-09-26T03:54:16.728Z,102321.66
2023-09-26T03:56:18.506Z,102308.44
2023-09-26T03:58:20.291Z,102311.09
2023-09-26T04:00:27.113Z,102317.25
2023-09-26T04:02:29.741Z,102319.03
2023-09-26T04:04:33.081Z,102330.47
2023-09-26T04:06:35.051Z,102337.53
2023-09-26T04:08:37.124Z,102337.53
2023-09-26T04:10:40.035Z,102330.50
2023-09-26T04:12:41.858Z,102325.22
2023-09-26T04:14:43.572Z,102327.84
2023-09-26T04:16:45.297Z,102328.72
2023-09-26T04:18:47.574Z,102319.94
2023-09-26T04:20:51.848Z,102317.25
2023-09-26T04:22:53.581Z,102326.94
2023-09-26T04:24:55.437Z,102319.03
2023-09-26T04:26:57.293Z,102326.09
2023-09-26T04:28:59.205Z,102319.94
2023-09-26T04:31:01.032Z,102326.97
2023-09-26T04:33:02.845Z,102318.19
2023-09-26T04:35:05.257Z,102317.31
2023-09-26T04:37:09.041Z,102319.94
2023-09-26T04:39:10.855Z,102316.44
2023-09-26T04:41:14.525Z,102324.34
2023-09-26T04:43:16.695Z,102319.06
2023-09-26T04:45:18.515Z,102315.56
2023-09-26T04:47:21.263Z,102326.13
2023-09-26T04:49:23.107Z,102320.84
2023-09-26T04:51:25.115Z,102320.84
2023-09-26T04:53:27.109Z,102320.84
2023-09-26T04:55:28.938Z,102326.97
2023-09-26T04:57:30.813Z,102317.31
2023-09-26T04:59:32.531Z,102319.94
2023-09-26T05:01:34.458Z,102320.81
2023-09-26T05:03:36.414Z,102316.44
2023-09-26T05:05:38.230Z,102311.16
2023-09-26T05:07:43.025Z,102315.56
2023-09-26T05:09:45.351Z,102312.03
2023-09-26T05:11:47.072Z,102313.81
2023-09-26T05:13:49.282Z,102314.69
2023-09-26T05:15:51.214Z,102309.44
2023-09-26T05:17:53.540Z,102303.28
2023-09-26T05:19:55.369Z,102312.94
2023-09-26T05:21:57.256Z,102308.53
2023-09-26T05:23:59.008Z,102308.53
2023-09-26T05:26:09.107Z,102311.19
2023-09-26T05:28:10.901Z,102317.34
2023-09-26T05:30:14.527Z,102308.53
2023-09-26T05:32:16.304Z,102305.88
2023-09-26T05:34:18.253Z,102301.50
2023-09-26T05:36:19.972Z,102305.88
2023-09-26T05:38:21.700Z,102304.13
2023-09-26T05:40:23.478Z,102309.38
2023-09-26T05:42:25.469Z,102309.41
2023-09-26T05:44:27.241Z,102308.53
2023-09-26T05:46:29.000Z,102302.34
2023-09-26T05:48:31.263Z,102305.84
2023-09-26T05:50:33.091Z,102306.72
2023-09-26T05:52:35.235Z,102305.84
2023-09-26T05:54:37.495Z,102295.25
2023-09-26T05:56:39.205Z,102289.97
2023-09-26T05:58:40.918Z,102298.75
2023-09-26T06:00:43.981Z,102296.09
2023-09-26T06:02:46.515Z,102293.44
2023-09-26T06:04:48.454Z,102299.59
2023-09-26T06:06:50.711Z,102296.91
2023-09-26T06:08:53.691Z,102296.88
2023-09-26T06:10:57.380Z,102303.91
2023-09-26T06:12:59.171Z,102302.97
2023-09-26T06:15:00.930Z,102295.94
2023-09-26T06:17:02.836Z,102296.78
2023-09-26T06:19:04.686Z,102296.78
2023-09-26T06:21:08.325Z,102296.72
2023-09-26T06:23:10.193Z,102295.78
2023-09-26T06:25:12.297Z,102304.56
2023-09-26T06:27:14.145Z,102302.75
2023-09-26T06:29:15.883Z,102304.47
2023-09-26T06:31:17.969Z,102304.44
2023-09-26T06:33:20.549Z,102307.88
2023-09-26T06:35:22.406Z,102309.56
2023-09-26T06:37:24.351Z,102304.16
2023-09-26T06:39:26.114Z,102307.66
2023-09-26T06:41:27.861Z,102304.09
2023-09-26T06:43:31.053Z,102303.13
2023-09-26T06:45:32.803Z,102306.66
2023-09-26T06:47:35.211Z,102310.13
2023-09-26T06:49:37.029Z,102310.97
2023-09-26T06:51:38.890Z,102310.94
2023-09-26T06:53:40.657Z,102310.88
2023-09-26T06:55:42.607Z,102309.03
2023-09-26T06:57:44.397Z,102308.13
2023-09-26T06:59:52.827Z,102312.44
2023-09-26T07:01:54.559Z,102304.41
2023-09-26T07:03:56.397Z,102303.47
2023-09-26T07:05:58.281Z,102302.50
2023-09-26T07:07:59.987Z,102301.56
2023-09-26T07:10:03.323Z,102299.75
2023-09-26T07:12:05.367Z,102304.09
2023-09-26T07:14:08.667Z,102303.19
2023-09-26T07:16:10.748Z,102304.91
2023-09-26T07:18:13.799Z,102313.69
2023-09-26T07:20:16.249Z,102311.84
2023-09-26T07:22:18.064Z,102317.06
2023-09-26T07:24:20.017Z,102317.84
2023-09-26T07:26:22.512Z,102316.84
2023-09-26T07:28:24.610Z,102321.19
2023-09-26T07:30:26.744Z,102317.63
2023-09-26T07:32:28.656Z,102315.78
2023-09-26T07:34:30.412Z,102316.59
2023-09-26T07:36:33.568Z,102316.50
2023-09-26T07:38:35.786Z,102307.63
2023-09-26T07:40:38.358Z,102307.59
2023-09-26T07:42:41.718Z,102302.25
2023-09-26T07:44:43.487Z,102312.81
2023-09-26T07:46:45.484Z,102311.88
2023-09-26T07:48:47.281Z,102310.06
2023-09-26T07:50:49.030Z,102302.91
2023-09-26T07:52:50.776Z,102308.16
2023-09-26T07:54:52.554Z,102300.16
2023-09-26T07:56:54.299Z,102308.91
2023-09-26T07:58:56.047Z,102301.72
2023-09-26T08:01:00.511Z,102309.53
2023-09-26T08:03:02.538Z,102311.03
2023-09-26T08:05:04.480Z,102305.56
2023-09-26T08:07:06.341Z,102314.19
2023-09-26T08:09:08.182Z,102310.56
2023-09-26T08:11:11.908Z,102305.91
2023-09-26T08:13:16.171Z,102294.22
2023-09-26T08:15:17.972Z,102296.66
2023-09-26T08:17:19.740Z,102296.59
2023-09-26T08:19:21.710Z,102293.81
2023-09-26T08:21:25.237Z,102296.38
2023-09-26T08:23:27.281Z,102304.28
2023-09-26T08:25:30.961Z,102301.53
2023-09-26T08:27:33.348Z,102307.53
2023-09-26T08:29:35.079Z,102310.97
2023-09-26T08:31:37.602Z,102309.94
2023-09-26T08:33:39.510Z,102318.66
2023-09-26T08:35:41.335Z,102315.06
2023-09-26T08:37:43.289Z,102313.09
2023-09-26T08:39:45.292Z,102314.59
2023-09-26T08:41:48.652Z,102317.06
2023-09-26T08:43:51.510Z,102314.19
2023-09-26T08:45:54.310Z,102305.13
2023-09-26T08:47:59.571Z,102304.06
2023-09-26T08:50:01.411Z,102307.41
2023-09-26T08:52:06.283Z,102304.56
2023-09-26T08:54:09.119Z,102307.94
2023-09-26T08:56:10.954Z,102306.88
2023-09-26T08:58:14.822Z,102303.09
2023-09-26T09:00:18.796Z,102309.09
2023-09-26T09:02:20.748Z,102299.13
2023-09-26T09:04:22.712Z,102304.28
2023-09-26T09:06:24.768Z,102304.16
2023-09-26T09:08:26.647Z,102301.50
2023-09-26T09:10:28.378Z,102290.59
2023-09-26T09:12:30.289Z,102292.19
2023-09-26T09:14:34.331Z,102292.00
2023-09-26T09:16:36.703Z,102287.31
2023-09-26T09:18:39.949Z,102291.59
2023-09-26T09:20:41.787Z,102288.69
2023-09-26T09:22:50.484Z,102285.88
2023-09-26T09:24:56.095Z,102281.22
2023-09-26T09:26:57.888Z,102281.91
2023-09-26T09:29:19.996Z,102275.44
2023-09-26T09:31:23.559Z,102275.22
2023-09-26T09:33:29.539Z,102277.81
2023-09-26T09:35:31.350Z,102274.13
2023-09-26T09:37:33.138Z,102273.06
2023-09-26T09:39:34.846Z,102271.00
2023-09-26T09:41:41.168Z,102266.28
2023-09-26T09:43:42.967Z,102269.63
2023-09-26T09:45:48.884Z,102259.56
2023-09-26T09:47:50.951Z,102255.78
2023-09-26T09:49:53.460Z,102254.75
2023-09-26T09:51:58.499Z,102257.31
2023-09-26T09:54:01.965Z,102253.78
2023-09-26T09:56:08.475Z,102246.59
2023-09-26T09:58:13.873Z,102244.63
2023-09-26T10:00:17.062Z,102244.41
2023-09-26T10:02:19.127Z,102246.09
2023-09-26T10:04:23.032Z,102246.84
2023-09-26T10:06:25.134Z,102248.41
2023-09-26T10:08:28.619Z,102248.22
2023-09-26T10:10:31.515Z,102249.69
2023-09-26T10:12:35.369Z,102247.63
2023-09-26T10:14:37.246Z,102248.19
2023-09-26T10:16:39.115Z,102237.22
2023-09-26T10:18:41.596Z,102229.78
2023-09-26T10:20:52.270Z,102236.56
2023-09-26T10:23:11.249Z,102234.16
2023-09-26T10:25:20.593Z,102229.13
2023-09-26T10:27:58.376Z,102225.22
2023-09-26T10:30:05.208Z,102220.88
2023-09-26T10:32:09.296Z,102218.13
2023-09-26T10:34:11.211Z,102225.91
2023-09-26T10:36:13.972Z,102225.03
2023-09-26T10:38:20.325Z,102224.28
2023-09-26T10:40:22.202Z,102218.94
2023-09-26T10:44:51.670Z,102215.41
2023-09-26T10:46:55.032Z,102212.41
2023-09-26T10:49:00.105Z,102216.38
2023-09-26T10:51:02.246Z,102208.31
2023-09-26T10:53:04.313Z,102208.31
2023-09-26T10:55:06.665Z,102210.38
2023-09-26T10:57:24.861Z,102209.00
2023-09-26T10:59:36.549Z,102211.00
2023-09-26T11:01:39.313Z,102196.34
2023-09-26T11:03:41.988Z,102206.19
2023-09-26T11:05:45.497Z,102191.59
2023-09-26T11:10:14.986Z,102193.16
2023-09-26T11:12:16.838Z,102190.56
2023-09-26T11:14:19.057Z,102187.94
2023-09-26T11:16:20.895Z,102184.50
2023-09-26T11:18:23.302Z,102183.97
2023-09-26T11:20:28.112Z,102184.94
2023-09-26T11:22:30.060Z,102186.94
2023-09-26T11:24:32.881Z,102188.94
2023-09-26T11:26:34.738Z,102186.06
2023-09-26T11:28:36.853Z,102182.22
2023-09-26T11:30:40.334Z,102187.63
2023-09-26T11:32:44.115Z,102190.47
2023-09-26T11:34:46.166Z,102190.38
2023-09-26T11:36:52.285Z,102179.09
2023-09-26T11:38:54.636Z,102174.22
2023-09-26T11:40:56.563Z,102172.03
2023-09-26T11:43:01.968Z,102176.34
2023-09-26T11:45:04.583Z,102165.41
2023-09-26T11:47:09.621Z,102164.94
2023-09-26T11:49:16.712Z,102166.50
2023-09-26T11:51:19.663Z,102170.84
2023-09-26T11:53:22.537Z,102164.28
2023-09-26T11:55:24.348Z,102160.19
2023-09-26T11:57:26.158Z,102162.91
2023-09-26T11:59:27.880Z,102167.38
2023-09-26T12:01:30.259Z,102158.63
2023-09-26T12:03:32.120Z,102158.63
2023-09-26T12:05:33.975Z,102154.97
2023-09-26T12:07:36.641Z,102157.50
2023-09-26T12:09:38.423Z,102156.13
2023-09-26T12:11:40.158Z,102154.28
2023-09-26T12:13:41.953Z,102153.28
2023-09-26T12:15:43.748Z,102151.75
2023-09-26T12:17:45.609Z,102146.69
2023-09-26T12:19:47.501Z,102144.63
2023-09-26T12:21:49.805Z,102141.66
2023-09-26T12:23:52.126Z,102141.00
2023-09-26T12:25:53.941Z,102141.50
2023-09-26T12:27:55.748Z,102140.38
2023-09-26T12:29:57.516Z,102136.81
2023-09-26T12:31:59.967Z,102132.19
2023-09-26T12:34:03.620Z,102128.09
2023-09-26T12:36:05.678Z,102130.19
2023-09-26T12:38:07.568Z,102129.31
2023-09-26T12:40:10.002Z,102120.03
2023-09-26T12:42:14.679Z,102121.88
2023-09-26T12:44:16.570Z,102119.69
2023-09-26T12:46:18.363Z,102113.31
2023-09-26T12:48:21.187Z,102123.16
2023-09-26T12:50:23.000Z,102117.00
2023-09-26T12:52:28.336Z,102114.25
2023-09-26T12:54:30.165Z,102112.41
2023-09-26T12:56:31.896Z,102112.50
2023-09-26T12:58:33.648Z,102117.69
2023-09-26T13:00:36.238Z,102117.88
2023-09-26T13:02:42.211Z,102113.38
2023-09-26T13:04:44.205Z,102113.16
2023-09-26T13:06:45.956Z,102102.91
2023-09-26T13:08:47.682Z,102103.69
2023-09-26T13:10:49.450Z,102102.34
2023-09-26T13:12:51.366Z,102102.66
2023-09-26T13:14:53.266Z,102099.59
2023-09-26T13:16:55.039Z,102102.94
2023-09-26T13:18:58.622Z,102098.06
2023-09-26T13:21:00.414Z,102096.00
2023-09-26T13:23:04.879Z,102094.94
2023-09-26T13:25:08.177Z,102086.97
2023-09-26T13:27:10.083Z,102081.09
2023-09-26T13:29:11.952Z,102085.81
2023-09-26T13:31:13.842Z,102074.03
2023-09-26T13:33:16.022Z,102080.94
2023-09-26T13:35:17.871Z,102079.31
2023-09-26T13:37:19.659Z,102072.09
2023-09-26T13:39:23.488Z,102074.69
2023-09-26T13:41:25.352Z,102079.03
2023-09-26T13:43:27.065Z,102077.88
2023-09-26T13:45:28.896Z,102068.25
2023-09-26T13:47:30.795Z,102077.84
2023-09-26T13:49:32.738Z,102077.19
2023-09-26T13:51:35.063Z,102073.44
2023-09-26T13:53:36.793Z,102068.31
2023-09-26T13:55:38.592Z,102075.88
2023-09-26T13:57:40.608Z,102080.50
2023-09-26T13:59:42.420Z,102073.56
2023-09-26T14:01:44.288Z,102066.81
2023-09-26T14:03:47.231Z,102073.66
2023-09-26T14:05:49.151Z,102075.47
2023-09-26T14:07:51.293Z,102071.44
2023-09-26T14:09:53.039Z,102071.31
2023-09-26T14:11:54.852Z,102059.47
2023-09-26T14:13:56.900Z,102067.56
2023-09-26T14:15:58.679Z,102071.31
2023-09-26T14:18:00.715Z,102068.19
2023-09-26T14:20:02.737Z,102065.75
2023-09-26T14:22:04.536Z,102068.81
2023-09-26T14:24:06.801Z,102069.84
2023-09-26T14:26:11.317Z,102070.66
2023-09-26T14:28:13.133Z,102066.72
2023-09-26T14:30:15.131Z,102059.69
2023-09-26T14:32:17.030Z,102056.03
2023-09-26T14:34:19.103Z,102055.66
2023-09-26T14:36:20.992Z,102049.50
2023-09-26T14:38:22.835Z,102049.44
2023-09-26T14:40:24.597Z,102055.03
2023-09-26T14:42:26.560Z,102057.31
2023-09-26T14:44:28.997Z,102057.59
2023-09-26T14:46:32.310Z,102054.78
2023-09-26T14:48:34.143Z,102051.91
2023-09-26T14:50:36.188Z,102060.78
2023-09-26T14:52:38.619Z,102063.75
2023-09-26T14:54:40.394Z,102056.09
2023-09-26T14:56:43.913Z,102052.63
2023-09-26T14:58:50.251Z,102060.28
2023-09-26T15:00:52.155Z,102051.63
2023-09-26T15:02:54.065Z,102050.75
2023-09-26T15:04:55.920Z,102045.19
2023-09-26T15:06:57.672Z,102051.44
2023-09-26T15:08:59.483Z,102048.16
2023-09-26T15:11:03.638Z,102042.84
2023-09-26T15:13:07.862Z,102052.94
2023-09-26T15:15:10.123Z,102058.50
2023-09-26T15:17:12.270Z,102068.47
2023-09-26T15:19:14.066Z,102059.72
2023-09-26T15:21:15.877Z,102065.53
2023-09-26T15:23:17.717Z,102064.13
2023-09-26T15:25:19.486Z,102069.50
2023-09-26T15:27:21.233Z,102072.09
2023-09-26T15:29:23.090Z,102081.03
2023-09-26T15:31:25.006Z,102080.25
2023-09-26T15:33:26.806Z,102073.16
2023-09-26T15:35:28.624Z,102076.78
2023-09-26T15:37:30.456Z,102083.19
2023-09-26T15:39:33.202Z,102078.84
2023-09-26T15:41:34.980Z,102070.06
2023-09-26T15:43:37.224Z,102075.72
2023-09-26T15:45:40.559Z,102067.03
2023-09-26T15:47:42.535Z,102067.56
2023-09-26T15:49:50.383Z,102061.50
2023-09-26T15:51:52.434Z,102060.00
2023-09-26T15:53:54.168Z,102070.13
2023-09-26T15:55:55.904Z,102070.28
2023-09-26T15:57:57.687Z,102074.09
2023-09-26T15:59:59.532Z,102062.56
2023-09-26T16:02:02.878Z,102068.03
2023-09-26T16:04:06.154Z,102070.63
2023-09-26T16:06:07.976Z,102067.06
2023-09-26T16:08:11.103Z,102065.34
2023-09-26T16:10:15.473Z,102071.03
2023-09-26T16:12:17.192Z,102065.91
2023-09-26T16:14:19.025Z,102071.28
2023-09-26T16:16:21.137Z,102078.66
2023-09-26T16:18:22.884Z,102080.03
2023-09-26T16:20:24.586Z,102077.50
2023-09-26T16:22:26.417Z,102075.88
2023-09-26T16:24:28.217Z,102075.31
2023-09-26T16:26:30.239Z,102073.66
2023-09-26T16:28:32.216Z,102068.53
2023-09-26T16:30:34.061Z,102064.19
2023-09-26T16:32:36.034Z,102073.19
2023-09-26T16:34:38.165Z,102074.22
2023-09-26T16:36:44.753Z,102075.41
2023-09-26T16:38:47.071Z,102074.25
2023-09-26T16:40:48.852Z,102072.72
2023-09-26T16:42:50.924Z,102070.19
2023-09-26T16:44:52.729Z,102064.19
2023-09-26T16:46:54.643Z,102056.28
2023-09-26T16:48:56.579Z,102062.78
2023-09-26T16:50:58.426Z,102057.88
2023-09-26T16:53:01.826Z,102056.53
2023-09-26T16:55:04.649Z,102064.97
2023-09-26T16:57:06.435Z,102069.78
2023-09-26T16:59:08.420Z,102070.16
2023-09-26T17:01:13.890Z,102067.53
2023-09-26T17:03:15.737Z,102070.53
2023-09-26T17:05:18.915Z,102067.91
2023-09-26T17:07:22.671Z,102071.63
2023-09-26T17:09:25.368Z,102068.22
2023-09-26T17:11:27.258Z,102066.63
2023-09-26T17:13:29.197Z,102072.22
2023-09-26T17:15:31.081Z,102062.59
2023-09-26T17:17:33.019Z,102068.22
2023-09-26T17:19:36.649Z,102065.75
2023-09-26T17:21:38.643Z,102071.25
2023-09-26T17:23:41.071Z,102068.88
2023-09-26T17:25:43.021Z,102066.47
2023-09-26T17:27:44.872Z,102055.03
2023-09-26T17:29:46.680Z,102057.88
2023-09-26T17:31:48.607Z,102052.66
2023-09-26T17:33:50.456Z,102050.97
2023-09-26T17:35:52.195Z,102048.44
2023-09-26T17:37:54.165Z,102051.28
2023-09-26T17:39:55.949Z,102048.09
2023-09-26T17:41:57.698Z,102056.53
2023-09-26T17:44:00.149Z,102058.56
2023-09-26T17:46:02.067Z,102059.56
2023-09-26T17:48:04.406Z,102064.34
2023-09-26T17:50:07.115Z,102064.47
2023-09-26T17:52:09.038Z,102062.72
2023-09-26T17:54:10.864Z,102060.13
2023-09-26T17:56:12.661Z,102063.75
2023-09-26T17:58:14.528Z,102069.25
2023-09-26T18:00:16.535Z,102057.91
2023-09-26T18:02:18.332Z,102062.50
2023-09-26T18:04:20.093Z,102056.56
2023-09-26T18:06:22.315Z,102058.56
2023-09-26T18:08:24.083Z,102065.94
2023-09-26T18:10:25.869Z,102068.81
2023-09-26T18:12:27.615Z,102059.09
2023-09-26T18:14:30.202Z,102055.63
2023-09-26T18:16:32.090Z,102044.13
2023-09-26T18:18:34.083Z,102053.06
2023-09-26T18:20:35.822Z,102038.03
2023-09-26T18:22:37.690Z,102043.44
2023-09-26T18:24:39.436Z,102052.41
2023-09-26T18:26:41.203Z,102050.72
2023-09-26T18:28:43.028Z,102053.59
2023-09-26T18:30:45.757Z,102052.88
2023-09-26T18:32:47.576Z,102059.22
2023-09-26T18:34:49.562Z,102058.47
2023-09-26T18:36:51.376Z,102052.44
2023-09-26T18:38:53.120Z,102053.50
2023-09-26T18:40:54.922Z,102053.63
2023-09-26T18:42:56.841Z,102070.81
2023-09-26T18:44:58.611Z,102067.59
2023-09-26T18:47:00.395Z,102069.72
2023-09-26T18:49:02.428Z,102067.16
2023-09-26T18:51:05.054Z,102065.38
2023-09-26T18:53:07.780Z,102062.75
2023-09-26T18:55:10.116Z,102068.16
2023-09-26T18:57:11.844Z,102063.88
2023-09-26T18:59:13.623Z,102068.41
2023-09-26T19:01:15.807Z,102072.00
2023-09-26T19:03:17.731Z,102072.13
2023-09-26T19:05:19.794Z,102065.06
2023-09-26T19:07:21.705Z,102062.44
2023-09-26T19:09:23.761Z,102060.69
2023-09-26T19:11:25.529Z,102051.88
2023-09-26T19:13:27.248Z,102051.06
2023-09-26T19:15:29.120Z,102054.66
2023-09-26T19:17:30.914Z,102045.84
2023-09-26T19:19:32.875Z,102046.84
2023-09-26T19:21:35.196Z,102046.91
2023-09-26T19:23:37.137Z,102044.31
2023-09-26T19:25:39.043Z,102046.16
2023-09-26T19:27:40.861Z,102041.00
2023-09-26T19:29:44.211Z,102046.41
2023-09-26T19:31:46.057Z,102039.41
2023-09-26T19:33:48.824Z,102048.41
2023-09-26T19:35:50.655Z,102053.88
2023-09-26T19:37:52.451Z,102060.22
2023-09-26T19:39:54.218Z,102068.34
2023-09-26T19:41:56.078Z,102070.25
2023-09-26T19:43:57.954Z,102071.22
2023-09-26T19:46:01.254Z,102066.00
2023-09-26T19:48:03.172Z,102074.19
2023-09-26T19:50:06.948Z,102082.38
2023-09-26T19:52:08.781Z,102077.13
2023-09-26T19:54:10.765Z,102073.63
2023-09-26T19:56:12.488Z,102070.22
2023-09-26T19:58:14.453Z,102073.84
2023-09-26T20:00:16.995Z,102069.50
2023-09-26T20:02:18.777Z,102068.75
2023-09-26T20:04:20.651Z,102066.25
2023-09-26T20:06:22.659Z,102070.72
2023-09-26T20:08:24.971Z,102076.16
2023-09-26T20:10:26.820Z,102083.44
2023-09-26T20:12:28.679Z,102075.63
2023-09-26T20:14:30.520Z,102080.13
2023-09-26T20:16:32.340Z,102078.41
2023-09-26T20:18:34.161Z,102073.13
2023-09-26T20:20:35.891Z,102081.16
2023-09-26T20:22:38.821Z,102080.41
2023-09-26T20:24:40.586Z,102085.81
2023-09-26T20:26:42.307Z,102082.31
2023-09-26T20:28:45.274Z,102088.63
2023-09-26T20:30:47.919Z,102090.50
2023-09-26T20:32:49.742Z,102091.47
2023-09-26T20:34:51.501Z,102091.56
2023-09-26T20:36:53.239Z,102086.34
2023-09-26T20:38:55.285Z,102092.66
2023-09-26T20:41:09.509Z,102091.88
2023-09-26T20:43:11.366Z,102105.38
2023-09-26T20:45:13.113Z,102103.81
2023-09-26T20:47:15.055Z,102103.91
2023-09-26T20:49:17.069Z,102102.25
2023-09-26T20:51:19.153Z,102098.75
2023-09-26T20:53:21.689Z,102094.38
2023-09-26T20:55:23.532Z,102098.06
2023-09-26T20:57:25.292Z,102097.25
2023-09-26T20:59:27.048Z,102093.81
2023-09-26T21:01:28.912Z,102093.88
2023-09-26T21:03:30.793Z,102092.16
2023-09-26T21:05:39.605Z,102085.97
2023-09-26T21:07:41.217Z,102087.09
2023-09-26T21:09:42.995Z,102087.09
2023-09-26T21:11:45.008Z,102090.72
2023-09-26T21:13:46.800Z,102096.16
2023-09-26T21:15:48.538Z,102092.75
2023-09-26T21:17:51.286Z,102096.38
2023-09-26T21:19:53.125Z,102095.63
2023-09-26T21:21:55.471Z,102094.75
2023-09-26T21:23:57.853Z,102100.13
2023-09-26T21:25:59.804Z,102101.09
2023-09-26T21:28:02.141Z,102093.19
2023-09-26T21:30:05.649Z,102084.38
2023-09-26T21:32:08.901Z,102087.19
2023-09-26T21:34:10.994Z,102081.03
2023-09-26T21:36:13.559Z,102079.31
2023-09-26T21:38:15.351Z,102074.91
2023-09-26T21:40:17.306Z,102069.63
2023-09-26T21:42:19.031Z,102074.06
2023-09-26T21:44:20.882Z,102079.44
2023-09-26T21:46:22.664Z,102069.75
2023-09-26T21:48:24.606Z,102067.13
2023-09-26T21:50:26.482Z,102073.38
2023-09-26T21:52:28.317Z,102071.69
2023-09-26T21:54:30.030Z,102074.44
2023-09-26T21:56:31.858Z,102070.09
2023-09-26T21:58:33.613Z,102071.97
2023-09-26T22:00:35.404Z,102076.41
2023-09-26T22:02:38.087Z,102068.47
2023-09-26T22:04:44.608Z,102072.94
2023-09-26T22:06:46.486Z,102072.06
2023-09-26T22:08:48.261Z,102074.78
2023-09-26T22:10:50.277Z,102082.78
2023-09-26T22:12:52.188Z,102081.16
2023-09-26T22:14:53.958Z,102078.72
2023-09-26T22:16:56.257Z,102082.44
2023-09-26T22:18:57.984Z,102077.13
2023-09-26T22:21:01.618Z,102074.44
2023-09-26T22:23:03.469Z,102067.44
2023-09-26T22:25:07.017Z,102062.19
2023-09-26T22:27:08.844Z,102064.03
2023-09-26T22:29:10.601Z,102057.84
2023-09-26T22:31:12.452Z,102054.34
2023-09-26T22:33:14.721Z,102061.47
2023-09-26T22:35:16.588Z,102055.25
2023-09-26T22:37:18.426Z,102048.19
2023-09-26T22:39:20.921Z,102041.13
2023-09-26T22:41:22.657Z,102042.09
2023-09-26T22:43:24.744Z,102045.72
2023-09-26T22:45:26.461Z,102046.63
2023-09-26T22:47:29.611Z,102050.22
2023-09-26T22:49:31.774Z,102053.78
2023-09-26T22:51:34.407Z,102060.13
2023-09-26T22:53:36.966Z,102058.41
2023-09-26T22:55:40.118Z,102051.34
2023-09-26T22:57:41.932Z,102048.72
2023-09-26T22:59:43.674Z,102041.66
2023-09-26T23:01:46.998Z,102044.38
2023-09-26T23:03:48.987Z,102039.09
2023-09-26T23:05:50.970Z,102025.84
2023-09-26T23:07:52.692Z,102024.09
2023-09-26T23:09:54.545Z,102022.41
2023-09-26T23:11:56.338Z,102022.44
2023-09-26T23:13:58.062Z,102024.25
2023-09-26T23:15:59.830Z,102042.94
2023-09-26T23:18:01.681Z,102055.44
2023-09-26T23:20:06.464Z,102060.84
2023-09-26T23:22:08.301Z,102060.00
2023-09-26T23:24:10.551Z,102075.13